Time;durP1;ratioP1;P1;durP2;ratioP2;P2;SDS_P1;SDS_P2;PMS_P1;PMS_P2;Temp;Humidity;BMP_temperature;BMP_pressure;BME280_temperature;BME280_humidity;BME280_pressure;Samples;Min_cycle;Max_cycle;Signal;HPM_P1;HPM_P2
2023/07/22 00:00:56;;;;;;;13.70;6.70;;;;;;;;;;4997894;28;20037;-83
2023/07/22 00:03:23;;;;;;;11.32;6.15;;;;;;;;;;4998071;28;20691;-84
2023/07/22 00:05:49;;;;;;;14.68;6.57;;;;;;;;;;4997557;28;20046;-83
2023/07/22 00:08:15;;;;;;;11.93;6.15;;;;;;;;;;4998225;28;20163;-84
2023/07/22 00:10:42;;;;;;;15.27;6.97;;;;;;;;;;4997512;28;20038;-83
2023/07/22 00:13:09;;;;;;;12.05;6.30;;;;;;;;;;4997866;28;20116;-83
2023/07/22 00:15:35;;;;;;;13.05;6.20;;;;;;;;;;4978495;28;20393;-83
2023/07/22 00:18:01;;;;;;;12.60;6.28;;;;;;;;;;4992189;28;20147;-83
2023/07/22 00:20:27;;;;;;;11.18;5.68;;;;;;;;;;4997686;28;20042;-84
2023/07/22 00:22:53;;;;;;;12.77;6.43;;;;;;;;;;4958785;28;20118;-83
2023/07/22 00:25:19;;;;;;;12.68;5.97;;;;;;;;;;4996031;28;20037;-84
2023/07/22 00:27:45;;;;;;;15.05;6.70;;;;;;;;;;5014949;28;20537;-84
2023/07/22 00:30:11;;;;;;;11.15;6.15;;;;;;;;;;4997530;28;20046;-83
2023/07/22 00:32:37;;;;;;;12.63;6.35;;;;;;;;;;4981287;28;20041;-84
2023/07/22 00:35:05;;;;;;;11.93;5.97;;;;;;;;;;4997450;28;20068;-84
2023/07/22 00:37:32;;;;;;;14.20;6.38;;;;;;;;;;5003154;28;20372;-84
2023/07/22 00:39:58;;;;;;;12.10;6.28;;;;;;;;;;4997761;28;20483;-83
2023/07/22 00:42:24;;;;;;;13.48;6.43;;;;;;;;;;5014807;28;20069;-84
2023/07/22 00:44:50;;;;;;;12.48;6.45;;;;;;;;;;4996852;28;20111;-84
2023/07/22 00:47:17;;;;;;;11.80;6.28;;;;;;;;;;4978554;28;20034;-84
2023/07/22 00:49:43;;;;;;;11.68;6.68;;;;;;;;;;5014552;28;20379;-84
2023/07/22 00:52:09;;;;;;;15.85;6.90;;;;;;;;;;5014678;28;20038;-84
2023/07/22 00:54:35;;;;;;;13.60;6.57;;;;;;;;;;4994458;28;20034;-84
2023/07/22 00:57:01;;;;;;;11.95;6.43;;;;;;;;;;4986788;28;20068;-84
2023/07/22 00:59:27;;;;;;;12.70;5.88;;;;;;;;;;4996578;28;20042;-84
2023/07/22 01:01:53;;;;;;;13.18;6.35;;;;;;;;;;4996486;28;20586;-84
2023/07/22 01:04:22;;;;;;;11.77;6.40;;;;;;;;;;5014302;28;20070;-84
2023/07/22 01:06:48;;;;;;;12.23;6.32;;;;;;;;;;4996396;28;20048;-84
2023/07/22 01:09:14;;;;;;;12.07;6.18;;;;;;;;;;5013975;28;20084;-84
2023/07/22 01:11:40;;;;;;;14.43;6.70;;;;;;;;;;4996706;28;20038;-84
2023/07/22 01:14:07;;;;;;;11.40;5.95;;;;;;;;;;4996088;28;20046;-84
2023/07/22 01:16:34;;;;;;;15.48;6.15;;;;;;;;;;4996385;28;20042;-85
2023/07/22 01:19:00;;;;;;;12.73;6.30;;;;;;;;;;4995808;28;20049;-84
2023/07/22 01:21:27;;;;;;;11.48;6.43;;;;;;;;;;4996308;28;20053;-84
2023/07/22 01:23:53;;;;;;;12.98;6.28;;;;;;;;;;4996141;28;20483;-84
2023/07/22 01:26:20;;;;;;;14.73;6.22;;;;;;;;;;4995917;28;20053;-84
2023/07/22 01:28:46;;;;;;;13.15;6.03;;;;;;;;;;4995727;28;20038;-84
2023/07/22 01:31:12;;;;;;;10.95;6.32;;;;;;;;;;4996434;28;20060;-84
2023/07/22 01:33:39;;;;;;;10.57;5.68;;;;;;;;;;5005183;28;20038;-85
2023/07/22 01:36:05;;;;;;;14.25;6.25;;;;;;;;;;4996078;28;20041;-84
2023/07/22 01:38:31;;;;;;;10.65;5.97;;;;;;;;;;4995985;28;20119;-84
2023/07/22 01:40:57;;;;;;;12.40;6.40;;;;;;;;;;4995369;28;20049;-84
2023/07/22 01:43:24;;;;;;;11.57;6.07;;;;;;;;;;4973442;28;20042;-84
2023/07/22 01:45:50;;;;;;;13.63;6.57;;;;;;;;;;4996072;28;20048;-84
2023/07/22 01:48:16;;;;;;;12.40;6.53;;;;;;;;;;4995699;28;20041;-84
2023/07/22 01:50:42;;;;;;;15.63;6.57;;;;;;;;;;4996332;28;20045;-84
2023/07/22 01:53:08;;;;;;;13.48;6.70;;;;;;;;;;4996177;28;20038;-84
2023/07/22 01:55:34;;;;;;;15.38;6.13;;;;;;;;;;4963762;28;20048;-84
2023/07/22 01:58:01;;;;;;;12.50;6.05;;;;;;;;;;4995166;28;20042;-84
2023/07/22 02:00:28;;;;;;;11.70;6.47;;;;;;;;;;5012999;28;20042;-84
2023/07/22 02:02:54;;;;;;;13.95;6.53;;;;;;;;;;4994285;28;20054;-84
2023/07/22 02:05:20;;;;;;;12.05;6.50;;;;;;;;;;4995190;28;20498;-84
2023/07/22 02:07:47;;;;;;;13.50;6.85;;;;;;;;;;4993343;28;20068;-84
2023/07/22 02:10:13;;;;;;;11.63;5.90;;;;;;;;;;4979001;28;20513;-84
2023/07/22 02:12:39;;;;;;;11.85;6.82;;;;;;;;;;4995373;28;20046;-84
2023/07/22 02:15:05;;;;;;;14.00;6.60;;;;;;;;;;4994783;28;20054;-84
2023/07/22 02:17:31;;;;;;;12.95;6.38;;;;;;;;;;4994988;28;20045;-84
2023/07/22 02:19:58;;;;;;;13.88;6.47;;;;;;;;;;4994618;28;20042;-84
2023/07/22 02:22:24;;;;;;;15.73;6.45;;;;;;;;;;4995515;28;20069;-84
2023/07/22 02:24:50;;;;;;;13.73;6.45;;;;;;;;;;4994920;28;20050;-84
2023/07/22 02:27:16;;;;;;;13.50;5.78;;;;;;;;;;5012803;28;20029;-84
2023/07/22 02:29:42;;;;;;;16.40;7.53;;;;;;;;;;4995279;28;20046;-84
2023/07/22 02:32:08;;;;;;;12.63;6.68;;;;;;;;;;5012130;28;20045;-85
2023/07/22 02:34:35;;;;;;;18.50;7.20;;;;;;;;;;4995260;28;20042;-85
2023/07/22 02:37:01;;;;;;;14.68;6.53;;;;;;;;;;4994399;28;20124;-85
2023/07/22 02:39:27;;;;;;;13.13;6.53;;;;;;;;;;4995080;28;20059;-85
2023/07/22 02:41:53;;;;;;;14.60;6.60;;;;;;;;;;4994589;28;20176;-85
2023/07/22 02:44:19;;;;;;;14.65;7.28;;;;;;;;;;4994466;28;20053;-85
2023/07/22 02:46:45;;;;;;;14.55;6.63;;;;;;;;;;4994646;28;20042;-85
2023/07/22 02:49:12;;;;;;;12.95;6.53;;;;;;;;;;4977570;28;20054;-85
2023/07/22 02:51:38;;;;;;;15.30;7.18;;;;;;;;;;4995120;28;20131;-85
2023/07/22 02:54:04;;;;;;;13.27;7.40;;;;;;;;;;4994679;28;20426;-85
2023/07/22 02:56:30;;;;;;;18.45;7.68;;;;;;;;;;4994637;28;20506;-85
2023/07/22 02:58:56;;;;;;;15.13;7.53;;;;;;;;;;4994401;28;20498;-85
2023/07/22 03:01:23;;;;;;;14.45;6.85;;;;;;;;;;4978775;28;20042;-85
2023/07/22 03:03:49;;;;;;;16.50;7.40;;;;;;;;;;4991157;28;20534;-85
2023/07/22 03:06:15;;;;;;;14.27;7.30;;;;;;;;;;5012172;28;20096;-85
2023/07/22 03:08:41;;;;;;;13.93;7.22;;;;;;;;;;4994570;28;20046;-85
2023/07/22 03:11:07;;;;;;;16.48;7.50;;;;;;;;;;4993963;28;20034;-85
2023/07/22 03:13:34;;;;;;;20.85;8.40;;;;;;;;;;4994439;28;20050;-85
2023/07/22 03:16:03;;;;;;;15.43;7.88;;;;;;;;;;4994159;28;20037;-86
2023/07/22 03:18:30;;;;;;;15.30;7.78;;;;;;;;;;4978515;28;20087;-86
2023/07/22 03:20:57;;;;;;;17.30;8.70;;;;;;;;;;4999551;28;20103;-86
2023/07/22 03:23:23;;;;;;;18.17;8.35;;;;;;;;;;4998962;28;20038;-86
2023/07/22 03:25:49;;;;;;;19.38;9.18;;;;;;;;;;4998697;28;20560;-85
2023/07/22 03:28:16;;;;;;;17.13;9.13;;;;;;;;;;4998106;28;20530;-86
2023/07/22 03:30:42;;;;;;;18.02;8.10;;;;;;;;;;4998470;28;20101;-85
2023/07/22 03:33:08;;;;;;;20.13;9.25;;;;;;;;;;4998428;28;20157;-85
2023/07/22 03:35:36;;;;;;;17.70;9.00;;;;;;;;;;4998714;28;20537;-86
2023/07/22 03:38:04;;;;;;;19.80;9.52;;;;;;;;;;4998359;28;20483;-85
2023/07/22 03:40:30;;;;;;;19.60;10.13;;;;;;;;;;4998611;28;20041;-85
2023/07/22 03:42:57;;;;;;;18.10;9.02;;;;;;;;;;5003173;28;20041;-85
2023/07/22 03:45:23;;;;;;;19.38;9.98;;;;;;;;;;5006791;28;20125;-85
2023/07/22 03:47:59;;;;;;;22.33;9.93;;;;;;;;;;5015386;28;20109;-85
2023/07/22 03:50:25;;;;;;;;;;;;;;;;;;5016495;28;20053;-85
2023/07/22 03:52:51;;;;;;;18.65;9.30;;;;;;;;;;5000906;28;19917;-85
2023/07/22 03:55:19;;;;;;;19.85;9.40;;;;;;;;;;4999897;28;20045;-85
2023/07/22 03:57:45;;;;;;;18.95;10.07;;;;;;;;;;4998016;28;20038;-85
2023/07/22 04:00:12;;;;;;;21.42;9.57;;;;;;;;;;4997684;28;20100;-85
2023/07/22 04:02:38;;;;;;;18.00;9.30;;;;;;;;;;4986248;28;20060;-85
2023/07/22 04:05:05;;;;;;;18.85;10.18;;;;;;;;;;5010500;28;20049;-85
2023/07/22 04:07:31;;;;;;;20.42;9.63;;;;;;;;;;5014445;28;20034;-85
2023/07/22 04:09:57;;;;;;;18.38;9.93;;;;;;;;;;4997606;28;20052;-85
2023/07/22 04:12:23;;;;;;;20.88;10.30;;;;;;;;;;5014294;28;20042;-85
2023/07/22 04:14:50;;;;;;;19.83;9.88;;;;;;;;;;4981119;28;20046;-85
2023/07/22 04:17:16;;;;;;;23.65;10.25;;;;;;;;;;4997137;28;20095;-85
2023/07/22 04:19:46;;;;;;;23.60;10.98;;;;;;;;;;4997760;28;20038;-85
2023/07/22 04:22:12;;;;;;;26.33;10.48;;;;;;;;;;4996551;28;20139;-85
2023/07/22 04:24:38;;;;;;;20.77;10.05;;;;;;;;;;4997889;28;20081;-85
2023/07/22 04:27:04;;;;;;;19.20;9.68;;;;;;;;;;4997293;28;20403;-85
2023/07/22 04:29:31;;;;;;;20.40;9.88;;;;;;;;;;5015305;28;20049;-85
2023/07/22 04:32:00;;;;;;;23.15;10.88;;;;;;;;;;4996990;28;20410;-85
2023/07/22 04:34:33;;;;;;;24.80;10.73;;;;;;;;;;4977524;28;20038;-85
2023/07/22 04:36:59;;;;;;;21.33;10.18;;;;;;;;;;4996400;28;20080;-85
2023/07/22 04:39:25;;;;;;;21.58;10.57;;;;;;;;;;4997207;28;20045;-86
2023/07/22 04:41:51;;;;;;;21.65;10.02;;;;;;;;;;5013450;28;20073;-86
2023/07/22 04:44:17;;;;;;;22.73;10.43;;;;;;;;;;4996795;28;20100;-86
2023/07/22 04:46:44;;;;;;;21.92;10.90;;;;;;;;;;4997926;28;20394;-86
2023/07/22 04:49:10;;;;;;;23.02;10.75;;;;;;;;;;4996646;28;20398;-86
2023/07/22 04:51:36;;;;;;;24.65;11.13;;;;;;;;;;5015204;28;20057;-86
2023/07/22 04:54:02;;;;;;;24.10;11.35;;;;;;;;;;4989532;28;20185;-86
2023/07/22 04:56:28;;;;;;;28.17;11.65;;;;;;;;;;4980732;28;20041;-86
2023/07/22 04:58:54;;;;;;;23.60;10.48;;;;;;;;;;4972458;28;20064;-86
2023/07/22 05:01:20;;;;;;;23.55;11.35;;;;;;;;;;5013749;28;20041;-86
2023/07/22 05:03:46;;;;;;;24.05;11.23;;;;;;;;;;5006309;28;20046;-86
2023/07/22 05:06:13;;;;;;;22.13;10.85;;;;;;;;;;4996182;28;20117;-86
2023/07/22 05:08:39;;;;;;;25.75;11.75;;;;;;;;;;4996513;28;20045;-86
2023/07/22 05:11:05;;;;;;;22.45;11.45;;;;;;;;;;5005173;28;20041;-85
2023/07/22 05:13:31;;;;;;;28.92;12.25;;;;;;;;;;4978896;28;20051;-85
2023/07/22 05:15:57;;;;;;;22.98;11.27;;;;;;;;;;5013715;28;20123;-86
2023/07/22 05:18:23;;;;;;;26.77;11.95;;;;;;;;;;4995234;28;20052;-82
2023/07/22 05:20:49;;;;;;;27.20;12.15;;;;;;;;;;4995867;28;20084;-84
2023/07/22 05:23:15;;;;;;;26.50;12.27;;;;;;;;;;4994118;28;20050;-84
2023/07/22 05:25:41;;;;;;;27.08;12.30;;;;;;;;;;4982801;28;20033;-84
2023/07/22 05:28:07;;;;;;;27.65;12.35;;;;;;;;;;4996070;28;20042;-84
2023/07/22 05:30:33;;;;;;;25.15;12.05;;;;;;;;;;4997484;28;20092;-84
2023/07/22 05:32:59;;;;;;;28.85;12.90;;;;;;;;;;5009413;28;20069;-84
2023/07/22 05:35:25;;;;;;;24.25;11.75;;;;;;;;;;5021036;28;20033;-84
2023/07/22 05:37:51;;;;;;;22.52;10.63;;;;;;;;;;4995873;28;20092;-84
2023/07/22 05:40:17;;;;;;;23.92;12.57;;;;;;;;;;4995884;28;20046;-84
2023/07/22 05:42:43;;;;;;;25.38;12.27;;;;;;;;;;4995940;28;20042;-84
2023/07/22 05:45:13;;;;;;;21.90;12.48;;;;;;;;;;5014988;28;20128;-84
2023/07/22 05:47:39;;;;;;;25.25;12.88;;;;;;;;;;4998182;28;20129;-84
2023/07/22 05:50:06;;;;;;;23.45;11.45;;;;;;;;;;4996328;28;20096;-85
2023/07/22 05:52:32;;;;;;;23.33;12.07;;;;;;;;;;4982047;28;20046;-85
2023/07/22 05:54:58;;;;;;;23.15;11.63;;;;;;;;;;4992240;28;20034;-84
2023/07/22 05:57:24;;;;;;;22.58;12.07;;;;;;;;;;5005557;28;20042;-84
2023/07/22 05:59:51;;;;;;;26.27;12.52;;;;;;;;;;4987497;28;20120;-84
2023/07/22 06:02:18;;;;;;;19.55;11.15;;;;;;;;;;4988344;28;20050;-85
2023/07/22 06:04:44;;;;;;;21.15;11.27;;;;;;;;;;4995710;28;20507;-84
2023/07/22 06:07:10;;;;;;;20.55;11.18;;;;;;;;;;4994864;28;20046;-84
2023/07/22 06:09:36;;;;;;;20.50;11.52;;;;;;;;;;4995209;28;20061;-84
2023/07/22 06:12:02;;;;;;;19.13;10.80;;;;;;;;;;4995245;28;20034;-85
2023/07/22 06:14:29;;;;;;;20.42;10.68;;;;;;;;;;4991869;28;20491;-84
2023/07/22 06:16:55;;;;;;;19.38;11.10;;;;;;;;;;4991332;28;20088;-85
2023/07/22 06:19:21;;;;;;;18.80;10.30;;;;;;;;;;4991799;28;20388;-83
2023/07/22 06:21:47;;;;;;;17.80;9.73;;;;;;;;;;4993470;28;20046;-86
2023/07/22 06:24:13;;;;;;;18.60;10.15;;;;;;;;;;4991792;28;20042;-77
2023/07/22 06:26:39;;;;;;;16.70;9.73;;;;;;;;;;4992773;28;20057;-76
2023/07/22 06:29:06;;;;;;;15.82;9.15;;;;;;;;;;4992723;28;20093;-85
2023/07/22 06:31:32;;;;;;;15.55;8.30;;;;;;;;;;5007698;28;20137;-86
2023/07/22 06:34:02;;;;;;;15.30;8.70;;;;;;;;;;4991624;28;20044;-78
2023/07/22 06:36:29;;;;;;;14.95;8.73;;;;;;;;;;4991710;28;20096;-87
2023/07/22 06:38:55;;;;;;;15.40;8.60;;;;;;;;;;4956485;28;20555;-86
2023/07/22 06:41:23;;;;;;;18.02;9.10;;;;;;;;;;4991824;28;20049;-83
2023/07/22 06:43:50;;;;;;;15.15;9.77;;;;;;;;;;4991744;28;20050;-83
2023/07/22 06:46:16;;;;;;;15.23;9.40;;;;;;;;;;4975243;28;20049;-83
2023/07/22 06:48:42;;;;;;;14.73;8.80;;;;;;;;;;4991356;28;20050;-85
2023/07/22 06:51:08;;;;;;;18.27;9.90;;;;;;;;;;4992421;28;20073;-86
2023/07/22 06:53:34;;;;;;;18.95;9.88;;;;;;;;;;4984774;28;20477;-86
2023/07/22 06:56:00;;;;;;;16.80;10.23;;;;;;;;;;5009646;28;20096;-85
2023/07/22 06:58:27;;;;;;;19.23;10.98;;;;;;;;;;4992687;28;20185;-85
2023/07/22 07:00:54;;;;;;;21.33;11.27;;;;;;;;;;4986129;28;20053;-86
2023/07/22 07:03:21;;;;;;;20.95;11.40;;;;;;;;;;4992233;28;20045;-86
2023/07/22 07:05:57;;;;;;;20.15;11.80;;;;;;;;;;4988726;28;20077;-85
2023/07/22 07:08:23;;;;;;;23.00;12.48;;;;;;;;;;5008340;28;20042;-86
2023/07/22 07:10:49;;;;;;;23.90;12.85;;;;;;;;;;4975067;28;20121;-86
2023/07/22 07:13:15;;;;;;;22.85;13.02;;;;;;;;;;4988786;28;20033;-87
2023/07/22 07:15:41;;;;;;;26.00;14.05;;;;;;;;;;4987197;28;20503;-86
2023/07/22 07:18:07;;;;;;;22.67;12.23;;;;;;;;;;4985723;28;20048;-87
2023/07/22 07:20:34;;;;;;;23.02;13.23;;;;;;;;;;4994200;28;20049;-86
2023/07/22 07:23:00;;;;;;;23.58;13.02;;;;;;;;;;5010066;28;20116;-86
2023/07/22 07:25:26;;;;;;;23.48;14.30;;;;;;;;;;4967968;28;20046;-86
2023/07/22 07:27:52;;;;;;;21.45;13.25;;;;;;;;;;4985037;28;20073;-86
2023/07/22 07:30:18;;;;;;;25.58;13.10;;;;;;;;;;4991252;28;20038;-87
2023/07/22 07:32:44;;;;;;;24.40;13.43;;;;;;;;;;4994107;28;20543;-86
2023/07/22 07:35:10;;;;;;;22.75;12.90;;;;;;;;;;4998327;28;20050;-86
2023/07/22 07:37:36;;;;;;;22.75;13.35;;;;;;;;;;4984043;28;20084;-86
2023/07/22 07:40:03;;;;;;;22.05;11.98;;;;;;;;;;4993809;28;20053;-86
2023/07/22 07:42:29;;;;;;;21.02;12.40;;;;;;;;;;4994317;28;20042;-86
2023/07/22 07:44:55;;;;;;;21.20;12.18;;;;;;;;;;4985433;28;20152;-86
2023/07/22 07:47:21;;;;;;;20.58;12.63;;;;;;;;;;4993039;28;20522;-85
2023/07/22 07:49:47;;;;;;;20.67;12.38;;;;;;;;;;4992637;28;20460;-85
2023/07/22 07:52:13;;;;;;;21.83;12.57;;;;;;;;;;5010742;28;20483;-86
2023/07/22 07:54:40;;;;;;;21.85;13.45;;;;;;;;;;4992842;28;20042;-86
2023/07/22 07:57:06;;;;;;;27.92;12.55;;;;;;;;;;5010161;28;20088;-86
2023/07/22 07:59:32;;;;;;;21.55;12.75;;;;;;;;;;4992295;28;20048;-86
2023/07/22 08:01:58;;;;;;;23.63;13.50;;;;;;;;;;5007117;28;20038;-86
2023/07/22 08:04:24;;;;;;;24.02;14.18;;;;;;;;;;4967648;28;20430;-86
2023/07/22 08:06:50;;;;;;;22.48;13.40;;;;;;;;;;4994388;28;20042;-86
2023/07/22 08:09:19;;;;;;;25.08;13.48;;;;;;;;;;4996886;28;20249;-86
2023/07/22 08:11:45;;;;;;;23.92;13.93;;;;;;;;;;4987960;28;20081;-84
2023/07/22 08:14:11;;;;;;;26.48;14.35;;;;;;;;;;4996536;28;20119;-88
2023/07/22 08:16:37;;;;;;;25.15;14.00;;;;;;;;;;4997050;28;20100;-87
2023/07/22 08:19:04;;;;;;;26.17;14.30;;;;;;;;;;5000621;28;20046;-86
2023/07/22 08:21:30;;;;;;;23.25;12.40;;;;;;;;;;4995737;28;20064;-87
2023/07/22 08:23:57;;;;;;;24.88;13.98;;;;;;;;;;4996150;28;20124;-87
2023/07/22 08:26:23;;;;;;;23.77;13.85;;;;;;;;;;4982808;28;20045;-87
2023/07/22 08:28:49;;;;;;;23.45;13.50;;;;;;;;;;4994423;28;20399;-86
2023/07/22 08:31:15;;;;;;;23.00;12.68;;;;;;;;;;4996662;28;20037;-87
2023/07/22 08:33:41;;;;;;;25.67;12.65;;;;;;;;;;4996907;28;20510;-87
2023/07/22 08:36:07;;;;;;;21.17;11.75;;;;;;;;;;4979836;28;20045;-87
2023/07/22 08:38:33;;;;;;;20.60;11.23;;;;;;;;;;4998099;28;20037;-87
2023/07/22 08:40:59;;;;;;;18.25;10.35;;;;;;;;;;4994013;28;20115;-87
2023/07/22 08:43:27;;;;;;;15.27;8.93;;;;;;;;;;4991512;28;20609;-87
2023/07/22 08:45:54;;;;;;;14.43;8.68;;;;;;;;;;4989589;28;20074;-87
2023/07/22 08:48:22;;;;;;;12.30;7.18;;;;;;;;;;4991697;28;20049;-86
2023/07/22 08:50:55;;;;;;;8.90;6.13;;;;;;;;;;4982522;28;20169;-88
2023/07/22 08:53:25;;;;;;;8.30;5.32;;;;;;;;;;4994681;28;20038;-82
2023/07/22 08:55:51;;;;;;;8.38;4.32;;;;;;;;;;4984447;28;20091;-83
2023/07/22 08:58:17;;;;;;;6.25;3.90;;;;;;;;;;4995930;28;20072;-82
2023/07/22 09:00:44;;;;;;;7.03;3.92;;;;;;;;;;4994997;28;20053;-83
2023/07/22 09:03:10;;;;;;;5.70;3.45;;;;;;;;;;4994615;28;20042;-82
2023/07/22 09:05:36;;;;;;;6.65;3.25;;;;;;;;;;5013189;28;20049;-82
2023/07/22 09:08:04;;;;;;;5.32;3.10;;;;;;;;;;4994587;28;20113;-87
2023/07/22 09:10:30;;;;;;;8.05;3.53;;;;;;;;;;4995451;28;20046;-86
2023/07/22 09:12:57;;;;;;;8.35;2.90;;;;;;;;;;4995135;28;20074;-86
2023/07/22 09:15:23;;;;;;;6.10;3.00;;;;;;;;;;4995132;28;20054;-85
2023/07/22 09:17:49;;;;;;;7.00;3.78;;;;;;;;;;4994591;28;20053;-86
2023/07/22 09:20:16;;;;;;;5.55;3.30;;;;;;;;;;4996171;28;20068;-86
2023/07/22 09:22:49;;;;;;;7.18;4.38;;;;;;;;;;4995527;28;20046;-86
2023/07/22 09:25:25;;;;;;;7.35;3.92;;;;;;;;;;4995045;28;20041;-77
2023/07/22 09:27:53;;;;;;;8.07;4.80;;;;;;;;;;4994338;28;20052;-76
2023/07/22 09:30:23;;;;;;;7.40;5.00;;;;;;;;;;4994822;28;20500;-79
2023/07/22 09:32:50;;;;;;;9.55;4.93;;;;;;;;;;4995926;28;20503;-79
2023/07/22 09:35:16;;;;;;;8.27;4.90;;;;;;;;;;4995914;28;20037;-79
2023/07/22 09:37:42;;;;;;;9.52;5.30;;;;;;;;;;4984528;28;20046;-80
2023/07/22 09:40:24;;;;;;;10.52;6.43;;;;;;;;;;4987186;28;20068;-79
2023/07/22 09:42:52;;;;;;;11.07;6.35;;;;;;;;;;4982631;28;20050;-80
2023/07/22 09:45:18;;;;;;;11.25;7.18;;;;;;;;;;4995211;28;20046;-77
2023/07/22 09:47:46;;;;;;;14.88;7.65;;;;;;;;;;4994252;28;20491;-77
2023/07/22 09:50:14;;;;;;;13.93;7.63;;;;;;;;;;4991044;28;20517;-77
2023/07/22 09:52:47;;;;;;;16.13;8.70;;;;;;;;;;5002186;28;20042;-84
2023/07/22 09:55:15;;;;;;;17.45;9.15;;;;;;;;;;4982803;28;20442;-86
2023/07/22 09:57:46;;;;;;;15.10;7.63;;;;;;;;;;4991205;28;20046;-86
2023/07/22 10:00:14;;;;;;;16.52;9.05;;;;;;;;;;5003193;28;20088;-85
2023/07/22 10:02:42;;;;;;;16.60;9.48;;;;;;;;;;4994628;28;20046;-86
2023/07/22 10:05:12;;;;;;;15.15;9.30;;;;;;;;;;4978284;28;20048;-87
2023/07/22 10:07:39;;;;;;;17.08;9.20;;;;;;;;;;4994434;28;20053;-87
2023/07/22 10:10:05;;;;;;;15.45;10.05;;;;;;;;;;4994640;28;20050;-86
2023/07/22 10:12:32;;;;;;;17.95;10.20;;;;;;;;;;4994263;28;20113;-86
2023/07/22 10:14:58;;;;;;;17.60;10.63;;;;;;;;;;4986552;28;20635;-86
2023/07/22 10:17:24;;;;;;;19.17;11.05;;;;;;;;;;4990789;28;20045;-86
2023/07/22 10:19:51;;;;;;;19.20;10.77;;;;;;;;;;5010947;28;20050;-86
2023/07/22 10:22:18;;;;;;;24.85;11.70;;;;;;;;;;4994498;28;20077;-86
2023/07/22 10:24:44;;;;;;;22.83;10.77;;;;;;;;;;4979561;28;20046;-85
2023/07/22 10:27:11;;;;;;;17.08;10.07;;;;;;;;;;4987022;28;20069;-87
2023/07/22 10:29:37;;;;;;;17.77;10.50;;;;;;;;;;4994435;28;20057;-84
2023/07/22 10:32:04;;;;;;;13.60;9.55;;;;;;;;;;4994250;28;20487;-86
2023/07/22 10:34:30;;;;;;;16.48;10.20;;;;;;;;;;4993708;28;20048;-86
2023/07/22 10:36:58;;;;;;;14.68;9.95;;;;;;;;;;4996984;28;20491;-85
2023/07/22 10:39:28;;;;;;;12.50;8.80;;;;;;;;;;4978969;28;20621;-89
2023/07/22 10:42:01;;;;;;;12.27;8.60;;;;;;;;;;5002460;28;20068;-86
2023/07/22 10:44:27;;;;;;;12.95;8.38;;;;;;;;;;4979891;28;20499;-86
2023/07/22 10:47:00;;;;;;;14.00;9.20;;;;;;;;;;4994069;28;20068;-86
2023/07/22 10:49:28;;;;;;;11.85;8.27;;;;;;;;;;4993920;28;20100;-85
2023/07/22 10:51:57;;;;;;;12.57;9.00;;;;;;;;;;4986125;28;20515;-85
2023/07/22 10:54:35;;;;;;;12.65;8.55;;;;;;;;;;4999159;28;20088;-85
2023/07/22 10:57:23;;;;;;;11.48;8.20;;;;;;;;;;4993783;28;20407;-86
2023/07/22 10:59:50;;;;;;;11.98;8.80;;;;;;;;;;4994734;28;20490;-86
2023/07/22 11:02:26;;;;;;;11.90;9.18;;;;;;;;;;5011370;28;20042;-85
2023/07/22 11:04:52;;;;;;;13.88;9.00;;;;;;;;;;4978323;28;20046;-85
2023/07/22 11:07:30;;;;;;;12.23;8.13;;;;;;;;;;4993530;28;20102;-85
2023/07/22 11:09:56;;;;;;;11.30;8.65;;;;;;;;;;4993313;28;20050;-85
2023/07/22 11:12:25;;;;;;;12.38;8.77;;;;;;;;;;4994125;28;20070;-85
2023/07/22 11:15:03;;;;;;;13.35;8.25;;;;;;;;;;4994215;28;20054;-86
2023/07/22 11:17:30;;;;;;;12.30;9.45;;;;;;;;;;4994003;28;20034;-85
2023/07/22 11:19:56;;;;;;;11.25;8.77;;;;;;;;;;4993850;28;20177;-85
2023/07/22 11:22:22;;;;;;;13.48;9.00;;;;;;;;;;4993301;28;20041;-86
2023/07/22 11:24:49;;;;;;;11.38;8.60;;;;;;;;;;4987242;28;20074;-86
2023/07/22 11:27:15;;;;;;;11.25;8.45;;;;;;;;;;4987085;28;20449;-85
2023/07/22 11:29:42;;;;;;;13.40;9.32;;;;;;;;;;4978160;28;20046;-85
2023/07/22 11:32:16;;;;;;;11.95;8.80;;;;;;;;;;4992341;28;20046;-86
2023/07/22 11:34:44;;;;;;;11.48;8.82;;;;;;;;;;4982090;28;20056;-86
2023/07/22 11:37:10;;;;;;;11.45;9.07;;;;;;;;;;4978358;28;20057;-86
2023/07/22 11:39:37;;;;;;;11.55;8.45;;;;;;;;;;4993921;28;20608;-86
2023/07/22 11:42:04;;;;;;;12.52;9.45;;;;;;;;;;4991854;28;20053;-86
2023/07/22 11:44:31;;;;;;;11.80;9.48;;;;;;;;;;4998506;28;20076;-85
2023/07/22 11:47:03;;;;;;;13.07;9.35;;;;;;;;;;4996677;28;20049;-86
2023/07/22 11:49:33;;;;;;;12.85;9.23;;;;;;;;;;4996775;28;20045;-85
2023/07/22 11:52:03;;;;;;;13.27;10.10;;;;;;;;;;4997963;28;20038;-84
2023/07/22 11:54:30;;;;;;;14.02;10.43;;;;;;;;;;4994019;28;20037;-83
2023/07/22 11:56:57;;;;;;;15.80;10.10;;;;;;;;;;4997579;28;20052;-83
2023/07/22 11:59:40;;;;;;;14.05;10.15;;;;;;;;;;4996822;28;20125;-83
2023/07/22 12:02:06;;;;;;;12.65;10.63;;;;;;;;;;4994850;28;20049;-82
2023/07/22 12:04:35;;;;;;;16.83;11.50;;;;;;;;;;4997631;28;20096;-83
2023/07/22 12:07:03;;;;;;;13.82;10.63;;;;;;;;;;5003103;28;20623;-83
2023/07/22 12:09:30;;;;;;;15.55;11.77;;;;;;;;;;4996786;28;20097;-84
2023/07/22 12:11:58;;;;;;;13.20;10.95;;;;;;;;;;5014412;28;20048;-83
2023/07/22 12:14:24;;;;;;;14.82;12.35;;;;;;;;;;4997073;28;20061;-83
2023/07/22 12:16:53;;;;;;;16.05;12.23;;;;;;;;;;4997319;28;20507;-83
2023/07/22 12:19:19;;;;;;;17.75;12.40;;;;;;;;;;4998382;28;20524;-84
2023/07/22 12:21:45;;;;;;;17.83;13.02;;;;;;;;;;5013190;28;20503;-83
2023/07/22 12:24:14;;;;;;;17.50;12.57;;;;;;;;;;5011684;28;20045;-84
2023/07/22 12:26:40;;;;;;;17.48;13.85;;;;;;;;;;4996659;28;20099;-82
2023/07/22 12:29:08;;;;;;;17.95;13.20;;;;;;;;;;4997205;28;20049;-83
2023/07/22 12:31:34;;;;;;;19.48;14.35;;;;;;;;;;4996733;28;20089;-83
2023/07/22 12:34:00;;;;;;;18.88;13.43;;;;;;;;;;4997011;28;20030;-83
2023/07/22 12:36:26;;;;;;;16.63;13.50;;;;;;;;;;4991036;28;20045;-84
2023/07/22 12:38:52;;;;;;;15.55;13.13;;;;;;;;;;4998343;28;20050;-84
2023/07/22 12:41:18;;;;;;;17.00;13.27;;;;;;;;;;4999965;28;20044;-84
2023/07/22 12:43:44;;;;;;;16.92;13.60;;;;;;;;;;5013144;28;20099;-85
2023/07/22 12:46:10;;;;;;;16.15;12.00;;;;;;;;;;4994727;28;20049;-85
2023/07/22 12:48:37;;;;;;;17.13;12.02;;;;;;;;;;4979179;28;20060;-83
2023/07/22 12:51:03;;;;;;;14.38;11.32;;;;;;;;;;4996891;28;20041;-82
2023/07/22 12:53:29;;;;;;;16.13;11.38;;;;;;;;;;4995266;28;20034;-83
2023/07/22 12:55:55;;;;;;;18.25;11.73;;;;;;;;;;4979905;28;20549;-82
2023/07/22 12:58:21;;;;;;;16.23;11.18;;;;;;;;;;4995904;28;20498;-82
2023/07/22 13:00:47;;;;;;;14.77;9.63;;;;;;;;;;4996869;28;20072;-82
2023/07/22 13:03:13;;;;;;;11.75;9.55;;;;;;;;;;5011958;28;20049;-84
2023/07/22 13:05:40;;;;;;;15.90;8.55;;;;;;;;;;4994452;28;20050;-85
2023/07/22 13:08:06;;;;;;;10.55;8.55;;;;;;;;;;4978849;28;20395;-83
2023/07/22 13:10:34;;;;;;;11.80;7.72;;;;;;;;;;4991270;28;20054;-83
2023/07/22 13:13:00;;;;;;;13.55;8.68;;;;;;;;;;4996591;28;20558;-83
2023/07/22 13:15:26;;;;;;;10.63;7.43;;;;;;;;;;4995516;28;20476;-83
2023/07/22 13:17:52;;;;;;;8.95;7.13;;;;;;;;;;4974325;28;20073;-84
2023/07/22 13:20:18;;;;;;;9.82;7.18;;;;;;;;;;4979917;28;20052;-84
2023/07/22 13:22:44;;;;;;;9.00;6.63;;;;;;;;;;4995811;28;20059;-84
2023/07/22 13:25:10;;;;;;;11.63;6.75;;;;;;;;;;4993357;28;20041;-83
2023/07/22 13:27:38;;;;;;;9.57;6.60;;;;;;;;;;4979252;28;20054;-83
2023/07/22 13:30:06;;;;;;;7.05;5.30;;;;;;;;;;4982477;28;20407;-84
2023/07/22 13:32:32;;;;;;;8.40;5.60;;;;;;;;;;4989372;28;20052;-82
2023/07/22 13:34:58;;;;;;;8.60;5.75;;;;;;;;;;4995648;28;20398;-83
2023/07/22 13:37:25;;;;;;;9.15;5.93;;;;;;;;;;4979026;28;20449;-83
2023/07/22 13:39:51;;;;;;;9.23;5.05;;;;;;;;;;4995886;28;20487;-83
2023/07/22 13:42:17;;;;;;;7.35;5.20;;;;;;;;;;5011126;28;20077;-82
2023/07/22 13:44:43;;;;;;;8.77;5.45;;;;;;;;;;4985905;28;20495;-82
2023/07/22 13:47:09;;;;;;;8.13;5.35;;;;;;;;;;5017485;28;20510;-82
2023/07/22 13:49:35;;;;;;;10.25;5.18;;;;;;;;;;4978040;28;20089;-82
2023/07/22 13:52:01;;;;;;;11.98;6.75;;;;;;;;;;4978694;28;20072;-82
2023/07/22 13:54:27;;;;;;;9.30;5.57;;;;;;;;;;4995333;28;20052;-82
2023/07/22 13:56:53;;;;;;;9.10;5.30;;;;;;;;;;4988072;28;20117;-82
2023/07/22 13:59:19;;;;;;;9.77;5.40;;;;;;;;;;4995458;28;20053;-83
2023/07/22 14:01:45;;;;;;;6.72;4.70;;;;;;;;;;5013082;28;20095;-84
2023/07/22 14:04:11;;;;;;;6.93;4.22;;;;;;;;;;4995104;28;20041;-82
2023/07/22 14:06:37;;;;;;;5.75;2.80;;;;;;;;;;4994574;28;20034;-84
2023/07/22 14:09:03;;;;;;;5.38;2.65;;;;;;;;;;5012406;28;20049;-82
2023/07/22 14:11:29;;;;;;;6.15;2.40;;;;;;;;;;4975460;28;20050;-83
2023/07/22 14:13:55;;;;;;;6.20;2.00;;;;;;;;;;4985732;28;20038;-82
2023/07/22 14:16:21;;;;;;;4.22;2.00;;;;;;;;;;4995350;28;20053;-83
2023/07/22 14:18:48;;;;;;;5.15;2.00;;;;;;;;;;4994051;28;20045;-82
2023/07/22 14:21:14;;;;;;;4.43;1.88;;;;;;;;;;4995261;28;20434;-82
2023/07/22 14:23:40;;;;;;;5.43;2.00;;;;;;;;;;4981314;28;20483;-83